
Distance (Route):
Temperature : -15.3°C
Humidity : 12.4%
Pressure : 451.7hPa| Receiver | Date | Latitude | Longitude | Direction | Speed | Altitude | Climb | Temperature | Humidity | Pressure | Voltage | Killtimer | Uptime | BKT | XDATA |
|---|---|---|---|---|---|---|---|---|---|---|---|---|---|---|---|
| LZ4TU-5 | 2026-09-06 00:53:48 | 45.86032 | 21.31006 | 114° | 100km/h | 6641m | -16.1m/s | -15.3°C | 12.4% | 451.7hPa | 0V | 00:00:00 | 00:00:00 | 00:00:00 | |
| LZ4TU-5 | 2026-09-06 00:53:44 | 45.86083 | 21.30846 | 115° | 95km/h | 6722m | -17.5m/s | -16.0°C | 11.8% | 447.0hPa | 0V | 00:00:00 | 00:00:00 | 00:00:00 | |
| GYPAP8-17 | 2026-09-06 00:51:34 | 45.87980 | 21.26527 | 122° | 131km/h | 8920m | -17.3m/s | -30.4°C | 10.9% | 331.7hPa | 0V | 00:00:00 | 00:00:00 | 00:00:00 | |
| LZ4TU-5 | 2026-09-06 00:51:14 | 45.88300 | 21.25766 | 124° | 126km/h | 9254m | -17.3m/s | -33.6°C | 13.2% | 316.5hPa | 0V | 00:00:00 | 00:00:00 | 00:00:00 | |
| LZ4TU-5 | 2026-09-06 00:51:10 | 45.88387 | 21.25574 | 125° | 126km/h | 9339m | -17.5m/s | -34.4°C | 13.2% | 312.5hPa | 0V | 00:00:00 | 00:00:00 | 00:00:00 | |
| GYPAP8-17 | 2026-09-06 00:50:16 | 45.89360 | 21.23534 | 125° | 135km/h | 10311m | -19.3m/s | -43.1°C | 18.8% | 271.1hPa | 0V | 00:00:00 | 00:00:00 | 00:00:00 | |
| LZ4TU-5 | 2026-09-06 00:49:31 | 45.90214 | 21.21608 | 123° | 142km/h | 11102m | -17.1m/s | -49.4°C | 22.5% | 240.8hPa | 0V | 00:00:00 | 00:00:00 | 00:00:00 | |
| LZ4TU-5 | 2026-09-06 00:49:26 | 45.90311 | 21.21389 | 124° | 144km/h | 11189m | -16.9m/s | -50.1°C | 24.0% | 237.6hPa | 0V | 00:00:00 | 00:00:00 | 00:00:00 | |
| GYPAP8-17 | 2026-09-06 00:49:10 | 45.90617 | 21.20685 | 124° | 144km/h | 11535m | -23.5m/s | -53.0°C | 27.4% | 225.6hPa | 0V | 08:22:00 | 00:00:00 | 00:00:00 | |
| GYPAP8-17 | 2026-09-06 00:47:55 | 45.91900 | 21.17951 | 99° | 82km/h | 13405m | -29.9m/s | -61.3°C | 8.3% | 168.3hPa | 0V | 00:00:00 | 00:00:00 | 00:00:00 | |
| LZ4TU-5 | 2026-09-06 00:47:34 | 45.91881 | 21.17227 | 90° | 119km/h | 14024m | -28.0m/s | -65.1°C | 5.8% | 152.1hPa | 0V | 00:00:00 | 00:00:00 | 00:00:00 | |
| LZ4TU-5 | 2026-09-06 00:47:28 | 45.91884 | 21.17007 | 94° | 128km/h | 14164m | -28.2m/s | -65.6°C | 5.0% | 148.6hPa | 0V | 00:00:00 | 00:00:00 | 00:00:00 | |
| LZ4TU-5 | 2026-09-06 00:45:22 | 45.92612 | 21.13391 | 114° | 26km/h | 18319m | -41.1m/s | -54.7°C | 1.2% | 76.0hPa | 0V | 00:00:00 | 00:00:00 | 00:00:00 | |
| LZ4TU-5 | 2026-09-06 00:45:18 | 45.92616 | 21.13357 | 101° | 24km/h | 18539m | -44.4m/s | -54.8°C | 1.1% | 73.8hPa | 0V | 00:00:00 | 00:00:00 | 00:00:00 | |
| GYPAP8-17 | 2026-09-06 00:44:07 | 45.92670 | 21.12697 | 109° | 20km/h | 21724m | -56.0m/s | -53.7°C | 1.0% | 44.7hPa | 0V | 08:28:00 | 00:00:00 | 00:00:00 | |
| LZ4TU-5 | 2026-09-06 00:43:22 | 45.92669 | 21.12456 | 118° | 15km/h | 24267m | -58.7m/s | -52.0°C | 1.0% | 30.5hPa | 0V | 00:00:00 | 00:00:00 | 00:00:00 | |
| LZ4TU-5 | 2026-09-06 00:43:16 | 45.92677 | 21.12436 | 137° | 9km/h | 24582m | -64.3m/s | -51.0°C | 0.9% | 29.2hPa | 0V | 00:00:00 | 00:00:00 | 00:00:00 | |
| 9A1FER-10 | 2026-09-06 00:43:08 | 45.92675 | 21.12416 | 72° | 7km/h | 25142m | -60.2m/s | 0°C | 0% | 0hPa | 0V | 00:00:00 | 01:53:52 | 00:00:00 | |
| 9A1FER-10 | 2026-09-06 00:42:53 | 45.92688 | 21.12382 | 133° | 4km/h | 26079m | -65.3m/s | 0°C | 0% | 0hPa | 0V | 00:00:00 | 01:53:37 | 00:00:00 | |
| 9A1FER-10 | 2026-09-06 00:42:38 | 45.92690 | 21.12373 | 3° | 7km/h | 27126m | -70.1m/s | 0°C | 0% | 0hPa | 0V | 00:00:00 | 01:53:22 | 00:00:00 | |
| GYPAP8-17 | 2026-09-06 00:41:43 | 45.92628 | 21.12104 | 66° | 16km/h | 31433m | -61.3m/s | -41.5°C | 0.5% | 10.2hPa | 0V | 00:00:00 | 00:00:00 | 00:00:00 | |
| LZ4TU-5 | 2026-09-06 00:41:32 | 45.92614 | 21.12053 | 67° | 15km/h | 31838m | -5.3m/s | -43.8°C | 0.6% | 9.4hPa | 0V | 00:00:00 | 00:00:00 | 00:00:00 | |
| LZ4TU-5 | 2026-09-06 00:41:27 | 45.92607 | 21.12022 | 98° | 22km/h | 31810m | 5.9m/s | -43.6°C | 0.5% | 9.4hPa | 0V | 00:00:00 | 00:00:00 | 00:00:00 | |
| LZ4TU-5 | 2026-09-06 00:39:32 | 45.92682 | 21.11075 | 61° | 31km/h | 30991m | 7.1m/s | -44.1°C | 0.5% | 10.7hPa | 0V | 00:00:00 | 00:00:00 | 00:00:00 | |
| LZ4TU-5 | 2026-09-06 00:39:26 | 45.92670 | 21.11021 | 69° | 29km/h | 30957m | 9.3m/s | -44.3°C | 0.6% | 10.7hPa | 0V | 00:00:00 | 00:00:00 | 00:00:00 | |
| GYPAP8-17 | 2026-09-06 00:37:59 | 45.92364 | 21.10486 | 100° | 15km/h | 30363m | 4.3m/s | -44.8°C | 0.6% | 11.7hPa | 0V | 00:00:00 | 00:00:00 | 00:00:00 | |
| LZ4TU-5 | 2026-09-06 00:37:46 | 45.92369 | 21.10415 | 120° | 27km/h | 30270m | 7.9m/s | -45.2°C | 0.6% | 11.9hPa | 0V | 00:00:00 | 00:00:00 | 00:00:00 | |
| LZ4TU-5 | 2026-09-06 00:37:41 | 45.92384 | 21.10382 | 103° | 20km/h | 30234m | 7.6m/s | -45.0°C | 0.6% | 12.0hPa | 0V | 00:00:00 | 00:00:00 | 00:00:00 | |
| LZ4TU-5 | 2026-09-06 00:35:33 | 45.92330 | 21.09425 | 88° | 13km/h | 29336m | 6.4m/s | -46.5°C | 0.7% | 13.7hPa | 0V | 00:00:00 | 00:00:00 | 00:00:00 | |
| LZ4TU-5 | 2026-09-06 00:35:28 | 45.92322 | 21.09399 | 63° | 16km/h | 29297m | 9.1m/s | -46.4°C | 0.7% | 13.8hPa | 0V | 00:00:00 | 00:00:00 | 00:00:00 | |
| LZ4TU-5 | 2026-09-06 00:32:55 | 45.92366 | 21.09116 | 66° | 26km/h | 28188m | 5.8m/s | -44.5°C | 0.6% | 16.4hPa | 0V | 00:00:00 | 00:00:00 | 00:00:00 | |
| LZ4TU-5 | 2026-09-06 00:32:51 | 45.92361 | 21.09093 | 87° | 9km/h | 28162m | 7.1m/s | -44.4°C | 0.6% | 16.5hPa | 0V | 00:00:00 | 00:00:00 | 00:00:00 | |
| 9A1FER-10 | 2026-09-06 00:32:32 | 45.92329 | 21.09032 | 17° | 16km/h | 28034m | 8.1m/s | 0°C | 0% | 0hPa | 0V | 00:00:00 | 01:43:16 | 00:00:00 | |
| 9A1FER-10 | 2026-09-06 00:32:17 | 45.92247 | 21.08982 | 360° | 20km/h | 27934m | 5.8m/s | 0°C | 0% | 0hPa | 0V | 00:00:00 | 01:43:01 | 00:00:00 | |
| 9A1FER-10 | 2026-09-06 00:31:47 | 45.92164 | 21.08932 | 93° | 7km/h | 27729m | 6.5m/s | 0°C | 0% | 0hPa | 0V | 00:00:00 | 01:42:31 | 00:00:00 | |
| LZ4TU-5 | 2026-09-06 00:31:05 | 45.92103 | 21.08895 | 94° | 7km/h | 27449m | 7.9m/s | -46.4°C | 0.7% | 18.3hPa | 0V | 00:00:00 | 00:00:00 | 00:00:00 | |
| LZ4TU-5 | 2026-09-06 00:31:01 | 45.92100 | 21.08893 | 342° | 7km/h | 27415m | 6.1m/s | -46.5°C | 0.7% | 18.4hPa | 0V | 00:00:00 | 00:00:00 | 00:00:00 | |
| 9A1FER-10 | 2026-09-06 00:30:10 | 45.92067 | 21.08833 | 100° | 7km/h | 27072m | 5.6m/s | 0°C | 0% | 0hPa | 0V | 00:00:00 | 01:40:54 | 00:00:00 | |
| LZ4TU-5 | 2026-09-06 00:29:10 | 45.92088 | 21.08833 | 145° | 13km/h | 26678m | 9.0m/s | -47.9°C | 0.7% | 20.6hPa | 0V | 00:00:00 | 00:00:00 | 00:00:00 | |
| 9A1FER-10 | 2026-09-06 00:29:07 | 45.92095 | 21.08827 | 127° | 16km/h | 26650m | 8.5m/s | 0°C | 0% | 0hPa | 0V | 00:00:00 | 01:39:51 | 00:00:00 | |
| LZ4TU-5 | 2026-09-06 00:29:05 | 45.92095 | 21.08826 | 130° | 5km/h | 26643m | 4.7m/s | -48.1°C | 0.7% | 20.7hPa | 0V | 00:00:00 | 00:00:00 | 00:00:00 | |
| 9A1FER-10 | 2026-09-06 00:28:30 | 45.92251 | 21.08706 | 146° | 7km/h | 26402m | 8.2m/s | 0°C | 0% | 0hPa | 0V | 00:00:00 | 01:39:14 | 00:00:00 | |
| 9A1FER-10 | 2026-09-06 00:28:12 | 45.92275 | 21.08688 | 161° | 5km/h | 26278m | 8.1m/s | 0°C | 0% | 0hPa | 0V | 00:00:00 | 01:38:56 | 00:00:00 | |
| 9A1FER-10 | 2026-09-06 00:27:57 | 45.92308 | 21.08663 | 141° | 18km/h | 26174m | 7.1m/s | 0°C | 0% | 0hPa | 0V | 00:00:00 | 01:38:41 | 00:00:00 | |
| 9A1FER-10 | 2026-09-06 00:27:40 | 45.92362 | 21.08569 | 120° | 20km/h | 26057m | 5.8m/s | 0°C | 0% | 0hPa | 0V | 00:00:00 | 01:38:24 | 00:00:00 | |
| LZ4TU-5 | 2026-09-06 00:27:31 | 45.92369 | 21.08519 | 118° | 13km/h | 26001m | 6.3m/s | -50.9°C | 0.9% | 22.9hPa | 0V | 00:00:00 | 00:00:00 | 00:00:00 | |
| LZ4TU-5 | 2026-09-06 00:27:28 | 45.92379 | 21.08504 | 131° | 16km/h | 25974m | 5.9m/s | -50.9°C | 0% | 23.0hPa | 0V | 00:00:00 | 00:00:00 | 00:00:00 | |
| LZ4TU-5 | 2026-09-06 00:25:53 | 45.92419 | 21.08342 | 53° | 18km/h | 25340m | 7.9m/s | -51.0°C | 0.9% | 25.4hPa | 0V | 00:00:00 | 00:00:00 | 00:00:00 | |
| LZ4TU-5 | 2026-09-06 00:25:48 | 45.92412 | 21.08309 | 89° | 16km/h | 25308m | 6.2m/s | -51.0°C | 0.8% | 25.5hPa | 0V | 00:00:00 | 00:00:00 | 00:00:00 | |
| LZ4TU-5 | 2026-09-06 00:24:13 | 45.92544 | 21.08200 | 167° | 26km/h | 24682m | 5.8m/s | -52.5°C | 1.0% | 28.1hPa | 0V | 00:00:00 | 00:00:00 | 00:00:00 | |
| LZ4TU-5 | 2026-09-06 00:24:08 | 45.92570 | 21.08183 | 155° | 27km/h | 24647m | 7.6m/s | -52.5°C | 0.9% | 28.2hPa | 0V | 00:00:00 | 00:00:00 | 00:00:00 | |
| LZ4TU-5 | 2026-09-06 00:22:40 | 45.92733 | 21.07667 | 95° | 22km/h | 24034m | 7.4m/s | -53.2°C | 1.0% | 31.1hPa | 0V | 00:00:00 | 00:00:00 | 00:00:00 | |
| LZ4TU-5 | 2026-09-06 00:22:35 | 45.92743 | 21.07638 | 114° | 15km/h | 23997m | 5.3m/s | -53.3°C | 1.0% | 31.3hPa | 0V | 00:00:00 | 00:00:00 | 00:00:00 | |
| GYPAP8-17 | 2026-09-06 00:22:28 | 45.92747 | 21.07594 | 75° | 18km/h | 23950m | 7.1m/s | -53.2°C | 1.0% | 31.5hPa | 0V | 00:00:00 | 00:00:00 | 00:00:00 | |
| LZ4TU-5 | 2026-09-06 00:20:57 | 45.92577 | 21.07044 | 64° | 27km/h | 23350m | 5.3m/s | -53.2°C | 0% | 34.6hPa | 0V | 00:00:00 | 00:00:00 | 00:00:00 | |
| LZ4TU-5 | 2026-09-06 00:20:52 | 45.92566 | 21.07003 | 66° | 20km/h | 23319m | 5.8m/s | -53.3°C | 1.0% | 34.8hPa | 0V | 00:00:00 | 00:00:00 | 00:00:00 | |
| LZ4TU-5 | 2026-09-06 00:19:10 | 45.92321 | 21.06728 | 92° | 11km/h | 22655m | 5.1m/s | -54.5°C | 1.1% | 38.6hPa | 0V | 00:00:00 | 00:00:00 | 00:00:00 | |
| LZ4TU-5 | 2026-09-06 00:19:05 | 45.92316 | 21.06714 | 44° | 5km/h | 22622m | 6.1m/s | -54.2°C | 1.1% | 38.8hPa | 0V | 00:00:00 | 00:00:00 | 00:00:00 | |
| LZ4TU-5 | 2026-09-06 00:17:23 | 45.92432 | 21.06184 | 130° | 20km/h | 21984m | 5.5m/s | -55.0°C | 1.1% | 42.8hPa | 0V | 00:00:00 | 00:00:00 | 00:00:00 | |
| LZ4TU-5 | 2026-09-06 00:17:19 | 45.92439 | 21.06162 | 101° | 15km/h | 21959m | 6.3m/s | -54.8°C | 1.1% | 43.0hPa | 0V | 00:00:00 | 00:00:00 | 00:00:00 | |
| GYPAP8-17 | 2026-09-06 00:16:00 | 45.92623 | 21.05484 | 82° | 37km/h | 21467m | 5.1m/s | -56.3°C | 1.2% | 46.5hPa | 0V | 00:00:00 | 00:00:00 | 00:00:00 | |
| LZ4TU-5 | 2026-09-06 00:15:38 | 45.92577 | 21.05308 | 54° | 18km/h | 21324m | 5.9m/s | -55.7°C | 1.2% | 47.5hPa | 0V | 00:00:00 | 00:00:00 | 00:00:00 | |
| LZ4TU-5 | 2026-09-06 00:15:34 | 45.92565 | 21.05292 | 50° | 16km/h | 21298m | 7.3m/s | -55.6°C | 1.1% | 47.7hPa | 0V | 00:00:00 | 00:00:00 | 00:00:00 | |
| GYPAP8-17 | 2026-09-06 00:14:39 | 45.92499 | 21.04923 | 46° | 15km/h | 20944m | 5.6m/s | -55.9°C | 1.2% | 50.4hPa | 0V | 00:00:00 | 00:00:00 | 00:00:00 | |
| LZ4TU-5 | 2026-09-06 00:13:41 | 45.92640 | 21.04480 | 110° | 47km/h | 20573m | 4.9m/s | -56.8°C | 1.3% | 53.5hPa | 0V | 00:00:00 | 00:00:00 | 00:00:00 | |
| LZ4TU-5 | 2026-09-06 00:13:37 | 45.92655 | 21.04413 | 108° | 46km/h | 20548m | 6.6m/s | -56.9°C | 0% | 53.7hPa | 0V | 00:00:00 | 00:00:00 | 00:00:00 | |
| GYPAP8-17 | 2026-09-06 00:13:16 | 45.92696 | 21.04096 | 106° | 35km/h | 20417m | 5.5m/s | -56.1°C | 1.2% | 54.8hPa | 0V | 00:00:00 | 00:00:00 | 00:00:00 | |
| LZ4TU-5 | 2026-09-06 00:09:53 | 45.92452 | 21.02083 | 88° | 9km/h | 19194m | 5.7m/s | -55.5°C | 0% | 66.4hPa | 0V | 00:00:00 | 00:00:00 | 00:00:00 | |
| LZ4TU-5 | 2026-09-06 00:09:48 | 45.92453 | 21.02063 | 86° | 11km/h | 19163m | 5.2m/s | -55.3°C | 0% | 0hPa | 0V | 00:00:00 | 00:00:00 | 00:00:00 | |
| LZ4TU-5 | 2026-09-06 00:08:06 | 45.92649 | 21.01095 | 105° | 33km/h | 18575m | 5.6m/s | -54.5°C | 0% | 0hPa | 0V | 00:00:00 | 00:00:00 | 00:00:00 | |
| LZ4TU-5 | 2026-09-06 00:08:01 | 45.92654 | 21.01040 | 96° | 33km/h | 18549m | 6.6m/s | -54.4°C | 0% | 0hPa | 0V | 00:00:00 | 00:00:00 | 00:00:00 | |
| OM5KV | 2026-09-06 00:07:48 | 45.92675 | 21.00902 | 106° | 29km/h | 18478m | 4.5m/s | -54.1°C | 1.2% | 74.3hPa | 0V | 00:00:00 | 00:00:00 | 00:00:00 | |
| OM5KV | 2026-09-06 00:07:39 | 45.92683 | 21.00816 | 111° | 27km/h | 18427m | 6.3m/s | -54.0°C | 1.1% | 74.9hPa | 0V | 00:00:00 | 00:00:00 | 00:00:00 | |
| OM5KV | 2026-09-06 00:07:38 | 45.92686 | 21.00806 | 115° | 29km/h | 18422m | 4.6m/s | -54.0°C | 1.2% | 75.0hPa | 0V | 00:00:00 | 00:00:00 | 00:00:00 | |
| OM5KV | 2026-09-06 00:07:32 | 45.92709 | 21.00745 | 125° | 33km/h | 18387m | 4.9m/s | -53.8°C | 1.1% | 75.4hPa | 0V | 00:00:00 | 00:00:00 | 00:00:00 | |
| OM5KV | 2026-09-06 00:07:29 | 45.92719 | 21.00716 | 109° | 26km/h | 18368m | 6.2m/s | -54.2°C | 1.1% | 75.6hPa | 0V | 00:00:00 | 00:00:00 | 00:00:00 | |
| OM5KV | 2026-09-06 00:07:24 | 45.92732 | 21.00666 | 112° | 33km/h | 18339m | 9.7m/s | -54.5°C | 1.2% | 76.0hPa | 0V | 00:00:00 | 00:00:00 | 00:00:00 | |
| OM5KV | 2026-09-06 00:07:10 | 45.92797 | 21.00516 | 110° | 40km/h | 18251m | 7.4m/s | -54.9°C | 1.2% | 77.0hPa | 0V | 00:00:00 | 00:00:00 | 00:00:00 | |
| OM5KV | 2026-09-06 00:07:09 | 45.92800 | 21.00501 | 107° | 42km/h | 18242m | 9.7m/s | -54.9°C | 1.2% | 77.1hPa | 0V | 00:00:00 | 00:00:00 | 00:00:00 | |
| OM5KV | 2026-09-06 00:07:07 | 45.92806 | 21.00470 | 111° | 46km/h | 18227m | 6.2m/s | -54.9°C | 1.2% | 77.3hPa | 0V | 00:00:00 | 00:00:00 | 00:00:00 | |
| OM5KV | 2026-09-06 00:07:04 | 45.92821 | 21.00424 | 120° | 49km/h | 18204m | 7.8m/s | -55.1°C | 1.2% | 77.6hPa | 0V | 00:00:00 | 00:00:00 | 00:00:00 | |
| OM5KV | 2026-09-06 00:07:03 | 45.92827 | 21.00408 | 121° | 53km/h | 18196m | 7.7m/s | -55.2°C | 1.2% | 77.7hPa | 0V | 00:00:00 | 00:00:00 | 00:00:00 | |
| OM5KV | 2026-09-06 00:06:56 | 45.92879 | 21.00276 | 115° | 66km/h | 18148m | 5.0m/s | -55.6°C | 1.3% | 78.2hPa | 0V | 00:00:00 | 00:00:00 | 00:00:00 | |
| OM5KV | 2026-09-06 00:06:51 | 45.92912 | 21.00159 | 111° | 71km/h | 18119m | 5.9m/s | -55.7°C | 1.3% | 78.6hPa | 0V | 00:00:00 | 00:00:00 | 00:00:00 | |
| OM5KV | 2026-09-06 00:06:45 | 45.92947 | 21.00036 | 113° | 53km/h | 18083m | 5.2m/s | -55.7°C | 1.3% | 79.1hPa | 0V | 00:00:00 | 00:00:00 | 00:00:00 | |
| OM5KV | 2026-09-06 00:06:41 | 45.92964 | 20.99956 | 103° | 64km/h | 18059m | 6.5m/s | -55.9°C | 1.3% | 79.4hPa | 0V | 00:00:00 | 00:00:00 | 00:00:00 | |
| OM5KV | 2026-09-06 00:06:36 | 45.92978 | 20.99840 | 100° | 64km/h | 18029m | 6.5m/s | -55.9°C | 1.3% | 79.7hPa | 0V | 00:00:00 | 00:00:00 | 00:00:00 | |
| OM5KV | 2026-09-06 00:06:32 | 45.92989 | 20.99759 | 102° | 51km/h | 18005m | 5.0m/s | -56.0°C | 1.3% | 80.0hPa | 0V | 00:00:00 | 00:00:00 | 00:00:00 | |
| OM5KV | 2026-09-06 00:06:28 | 45.92999 | 20.99692 | 100° | 46km/h | 17981m | 5.4m/s | -56.4°C | 1.4% | 80.3hPa | 0V | 00:00:00 | 00:00:00 | 00:00:00 | |
| OM5KV | 2026-09-06 00:06:27 | 45.93001 | 20.99675 | 98° | 49km/h | 17976m | 5.2m/s | -56.6°C | 1.4% | 80.4hPa | 0V | 00:00:00 | 00:00:00 | 00:00:00 | |
| LZ4TU-5 | 2026-09-06 00:06:23 | 45.93010 | 20.99596 | 100° | 58km/h | 17951m | 5.6m/s | -56.8°C | 0% | 0hPa | 0V | 00:00:00 | 00:00:00 | 00:00:00 | |
| LZ4TU-5 | 2026-09-06 00:06:20 | 45.93022 | 20.99519 | 108° | 49km/h | 17928m | 7.8m/s | -57.0°C | 0% | 0hPa | 0V | 00:00:00 | 00:00:00 | 00:00:00 | |
| OM5KV | 2026-09-06 00:06:16 | 45.93034 | 20.99474 | 119° | 42km/h | 17911m | 5.9m/s | -57.2°C | 1.4% | 81.2hPa | 0V | 00:00:00 | 00:00:00 | 00:00:00 | |
| OM5KV | 2026-09-06 00:06:14 | 45.93050 | 20.99429 | 115° | 51km/h | 17894m | 4.4m/s | -57.3°C | 1.4% | 81.4hPa | 0V | 00:00:00 | 00:00:00 | 00:00:00 | |
| OM5KV | 2026-09-06 00:06:12 | 45.93067 | 20.99370 | 112° | 64km/h | 17877m | 6.2m/s | -57.2°C | 1.4% | 81.7hPa | 0V | 00:00:00 | 00:00:00 | 00:00:00 | |
| OM5KV | 2026-09-06 00:06:09 | 45.93083 | 20.99303 | 112° | 68km/h | 17859m | 5.6m/s | -57.1°C | 1.5% | 81.9hPa | 0V | 00:00:00 | 00:00:00 | 00:00:00 | |
| OM5KV | 2026-09-06 00:06:02 | 45.93118 | 20.99196 | 119° | 62km/h | 17830m | 6.3m/s | -57.0°C | 0% | 82.3hPa | 0V | 00:00:00 | 00:00:00 | 00:00:00 | |
| OM5KV | 2026-09-06 00:05:56 | 45.93167 | 20.99049 | 112° | 71km/h | 17789m | 5.7m/s | -57.1°C | 1.4% | 82.8hPa | 0V | 00:00:00 | 00:00:00 | 00:00:00 | |
| OM5KV | 2026-09-06 00:05:55 | 45.93167 | 20.99049 | 112° | 71km/h | 17789m | 5.7m/s | -57.1°C | 0% | 82.8hPa | 0V | 00:00:00 | 00:00:00 | 00:00:00 | |
| OM5KV | 2026-09-06 00:05:52 | 45.93185 | 20.98977 | 111° | 71km/h | 17771m | 6.2m/s | 0°C | 0% | 83.0hPa | 0V | 00:00:00 | 00:00:00 | 00:00:00 | |
| OM5KV | 2026-09-06 00:05:51 | 45.93199 | 20.98929 | 115° | 71km/h | 17759m | 5.9m/s | 0°C | 0% | 83.2hPa | 0V | 00:00:00 | 00:00:00 | 00:00:00 | |
| OM5KV | 2026-09-06 00:05:50 | 45.93213 | 20.98882 | 114° | 71km/h | 17749m | 5.9m/s | -57.4°C | 1.5% | 83.4hPa | 0V | 00:00:00 | 00:00:00 | 00:00:00 | |
| OM5KV | 2026-09-06 00:05:47 | 45.93220 | 20.98858 | 113° | 71km/h | 17743m | 5.5m/s | 0°C | 0% | 83.4hPa | 0V | 00:00:00 | 00:00:00 | 00:00:00 | |
| OM5KV | 2026-09-06 00:05:42 | 45.93248 | 20.98730 | 107° | 75km/h | 17712m | 6.7m/s | -57.6°C | 1.5% | 83.8hPa | 0V | 00:00:00 | 00:00:00 | 00:00:00 | |
| OM5KV | 2026-09-06 00:05:41 | 45.93253 | 20.98704 | 107° | 77km/h | 17706m | 4.8m/s | 0°C | 0% | 83.9hPa | 0V | 00:00:00 | 00:00:00 | 00:00:00 | |
| OM5KV | 2026-09-06 00:05:38 | 45.93269 | 20.98625 | 108° | 77km/h | 17689m | 7.9m/s | 0°C | 0% | 84.1hPa | 0V | 00:00:00 | 00:00:00 | 00:00:00 | |
| OM5KV | 2026-09-06 00:05:36 | 45.93288 | 20.98542 | 109° | 80km/h | 17671m | 7.2m/s | -57.9°C | 1.5% | 84.4hPa | 0V | 00:00:00 | 00:00:00 | 00:00:00 | |
| OM5KV | 2026-09-06 00:05:34 | 45.93295 | 20.98514 | 108° | 80km/h | 17666m | 4.6m/s | 0°C | 0% | 0hPa | 0V | 00:00:00 | 00:00:00 | 00:00:00 | |
| OM5KV | 2026-09-06 00:05:29 | 45.93328 | 20.98340 | 103° | 80km/h | 17633m | 4.4m/s | -58.5°C | 1.6% | 84.9hPa | 0V | 00:00:00 | 00:00:00 | 00:00:00 | |
| OM5KV | 2026-09-06 00:05:23 | 45.93346 | 20.98175 | 99° | 75km/h | 17598m | 6.0m/s | -58.5°C | 1.6% | 85.4hPa | 0V | 00:00:00 | 00:00:00 | 00:00:00 | |
| OM5KV | 2026-09-06 00:05:18 | 45.93358 | 20.98037 | 96° | 80km/h | 17571m | 5.2m/s | -58.4°C | 1.7% | 85.8hPa | 0V | 00:00:00 | 00:00:00 | 00:00:00 | |
| OM5KV | 2026-09-06 00:05:12 | 45.93359 | 20.97870 | 86° | 73km/h | 17535m | 5.4m/s | -58.5°C | 1.6% | 86.2hPa | 0V | 00:00:00 | 00:00:00 | 00:00:00 | |
| OM5KV | 2026-09-06 00:05:05 | 45.93360 | 20.97706 | 97° | 80km/h | 17499m | 8.5m/s | -58.2°C | 1.6% | 86.7hPa | 0V | 00:00:00 | 00:00:00 | 00:00:00 | |
| OM5KV | 2026-09-06 00:05:01 | 45.93370 | 20.97544 | 95° | 68km/h | 17466m | 5.3m/s | -57.9°C | 1.6% | 87.2hPa | 0V | 00:00:00 | 00:00:00 | 00:00:00 | |
| OM5KV | 2026-09-06 00:04:53 | 45.93377 | 20.97395 | 92° | 73km/h | 17432m | 6.7m/s | -57.6°C | 1.6% | 87.6hPa | 0V | 00:00:00 | 00:00:00 | 00:00:00 | |
| OM5KV | 2026-09-06 00:04:48 | 45.93380 | 20.97234 | 97° | 71km/h | 17399m | 5.0m/s | -57.3°C | 1.6% | 88.1hPa | 0V | 00:00:00 | 00:00:00 | 00:00:00 | |
| OM5KV | 2026-09-06 00:04:36 | 45.93394 | 20.96934 | 93° | 77km/h | 17331m | 4.6m/s | -57.2°C | 1.6% | 89.1hPa | 0V | 00:00:00 | 00:00:00 | 00:00:00 | |
| LZ4TU-5 | 2026-09-06 00:04:32 | 45.93398 | 20.96853 | 100° | 71km/h | 17314m | 4.6m/s | -57.4°C | 0% | 0hPa | 0V | 00:00:00 | 00:00:00 | 00:00:00 | |
| OM5KV | 2026-09-06 00:04:31 | 45.93406 | 20.96803 | 106° | 69km/h | 17303m | 6.1m/s | -57.5°C | 1.6% | 89.4hPa | 0V | 00:00:00 | 00:00:00 | 00:00:00 | |
| OM5KV | 2026-09-06 00:04:24 | 45.93428 | 20.96661 | 98° | 68km/h | 17266m | 6.8m/s | -57.6°C | 1.7% | 89.9hPa | 0V | 00:00:00 | 00:00:00 | 00:00:00 | |
| OM5KV | 2026-09-06 00:04:05 | 45.93486 | 20.96219 | 104° | 66km/h | 17153m | 4.9m/s | -57.8°C | 1.7% | 91.6hPa | 0V | 00:00:00 | 00:00:00 | 00:00:00 | |
| OM5KV | 2026-09-06 00:03:55 | 45.93529 | 20.95972 | 99° | 57km/h | 17092m | 5.3m/s | -58.0°C | 1.7% | 92.5hPa | 0V | 00:00:00 | 00:00:00 | 00:00:00 | |
| OM5KV | 2026-09-06 00:03:46 | 45.93559 | 20.95823 | 105° | 62km/h | 17053m | 4.8m/s | -58.2°C | 1.7% | 93.1hPa | 0V | 00:00:00 | 00:00:00 | 00:00:00 | |
| OM5KV | 2026-09-06 00:03:25 | 45.93696 | 20.95263 | 109° | 73km/h | 16923m | 5.1m/s | -59.6°C | 1.9% | 95.0hPa | 0V | 00:00:00 | 00:00:00 | 00:00:00 | |
| OM5KV | 2026-09-06 00:03:17 | 45.93756 | 20.94967 | 95° | 73km/h | 16859m | 5.5m/s | -59.9°C | 0% | 96.0hPa | 0V | 00:00:00 | 00:00:00 | 00:00:00 | |
| OM5KV | 2026-09-06 00:03:10 | 45.93797 | 20.94680 | 104° | 84km/h | 16798m | 6.1m/s | -60.0°C | 0% | 96.9hPa | 0V | 00:00:00 | 00:00:00 | 00:00:00 | |
| OM5KV | 2026-09-06 00:02:58 | 45.93823 | 20.94354 | 101° | 71km/h | 16726m | 8.6m/s | -59.7°C | 0% | 98.0hPa | 0V | 00:00:00 | 00:00:00 | 00:00:00 | |
| OM5KV | 2026-09-06 00:02:43 | 45.93852 | 20.94007 | 102° | 77km/h | 16652m | 6.3m/s | -59.3°C | 0% | 99.2hPa | 0V | 00:00:00 | 00:00:00 | 00:00:00 | |
| OM5KV | 2026-09-06 00:02:26 | 45.93873 | 20.93673 | 100° | 82km/h | 16586m | 6.7m/s | 0°C | 0% | 100.3hPa | 0V | 00:00:00 | 00:00:00 | 00:00:00 | |
| OM5KV | 2026-09-06 00:02:15 | 45.93906 | 20.93376 | 97° | 71km/h | 16525m | 6.7m/s | 0°C | 0% | 101.2hPa | 0V | 00:00:00 | 00:00:00 | 00:00:00 | |
| OM5KV | 2026-09-06 00:01:59 | 45.93949 | 20.92944 | 96° | 68km/h | 16434m | 3.9m/s | 0°C | 0% | 0hPa | 0V | 00:00:00 | 00:00:00 | 00:00:00 | |
| OM5KV | 2026-09-06 00:01:55 | 45.93961 | 20.92809 | 102° | 68km/h | 16400m | 4.5m/s | 0°C | 0% | 0hPa | 0V | 00:00:00 | 00:00:00 | 00:00:00 | |
| OM5KV | 2026-09-06 00:01:49 | 45.93986 | 20.92663 | 105° | 73km/h | 16368m | 3.7m/s | 0°C | 0% | 0hPa | 0V | 00:00:00 | 00:00:00 | 00:00:00 | |
| LZ4TU-5 | 2026-09-06 00:01:17 | 45.94124 | 20.91942 | 113° | 80km/h | 16201m | 5.0m/s | -59.6°C | 0% | 0hPa | 0V | 00:00:00 | 00:00:00 | 00:00:00 | |
| LZ4TU-5 | 2026-09-06 00:01:14 | 45.94156 | 20.91827 | 115° | 86km/h | 16179m | 5.7m/s | -59.5°C | 0% | 0hPa | 0V | 00:00:00 | 00:00:00 | 00:00:00 | |
| GYPAP8-17 | 2026-09-06 00:00:04 | 45.94539 | 20.89967 | 102° | 89km/h | 15822m | 6.7m/s | -59.0°C | 2.0% | 113.3hPa | 0V | 00:00:00 | 00:00:00 | 00:00:00 | |
| LZ4TU-5 | 2026-09-05 23:59:20 | 45.94685 | 20.88572 | 104° | 95km/h | 15589m | 4.8m/s | -57.2°C | 0% | 0hPa | 0V | 00:00:00 | 00:00:00 | 00:00:00 | |
| LZ4TU-5 | 2026-09-05 23:59:15 | 45.94703 | 20.88406 | 95° | 86km/h | 15562m | 6.7m/s | -56.9°C | 0% | 0hPa | 0V | 00:00:00 | 00:00:00 | 00:00:00 | |
| LZ4TU-5 | 2026-09-05 23:57:30 | 45.95173 | 20.85143 | 114° | 97km/h | 14967m | 5.9m/s | -59.8°C | 0% | 0hPa | 0V | 00:00:00 | 00:00:00 | 00:00:00 | |
| LZ4TU-5 | 2026-09-05 23:57:27 | 45.95209 | 20.85017 | 113° | 91km/h | 14943m | 5.5m/s | -59.8°C | 0% | 0hPa | 0V | 00:00:00 | 00:00:00 | 00:00:00 | |
| GYPAP8-17 | 2026-09-05 23:57:19 | 45.95275 | 20.84809 | 120° | 95km/h | 14901m | 6.1m/s | -59.9°C | 4.4% | 131.1hPa | 0V | 00:00:00 | 00:00:00 | 00:00:00 | |
| GYPAP8-17 | 2026-09-05 23:55:56 | 45.96262 | 20.81823 | 110° | 124km/h | 14426m | 6.7m/s | -64.2°C | 16.6% | 141.5hPa | 0V | 00:00:00 | 00:00:00 | 00:00:00 | |
| LZ4TU-5 | 2026-09-05 23:55:47 | 45.96363 | 20.81377 | 98° | 128km/h | 14362m | 9.1m/s | -64.8°C | 0% | 0hPa | 0V | 00:00:00 | 00:00:00 | 00:00:00 | |
| LZ4TU-5 | 2026-09-05 23:55:42 | 45.96378 | 20.81186 | 100° | 139km/h | 14326m | 7.8m/s | -65.4°C | 0% | 0hPa | 0V | 00:00:00 | 00:00:00 | 00:00:00 | |
| GYPAP8-17 | 2026-09-05 23:54:26 | 45.96400 | 20.77793 | 84° | 110km/h | 13843m | 7.5m/s | -64.0°C | 22.5% | 155.7hPa | 0V | 00:00:00 | 00:00:00 | 00:00:00 | |
| LZ4TU-5 | 2026-09-05 23:53:59 | 45.96313 | 20.76843 | 86° | 75km/h | 13650m | 8.8m/s | -63.1°C | 0% | 0hPa | 0V | 00:00:00 | 00:00:00 | 00:00:00 | |
| LZ4TU-5 | 2026-09-05 23:53:54 | 45.96321 | 20.76700 | 98° | 88km/h | 13617m | 9.0m/s | 0°C | 0% | 0hPa | 0V | 00:00:00 | 00:00:00 | 00:00:00 | |
| GYPAP8-17 | 2026-09-05 23:52:43 | 45.96716 | 20.74679 | 111° | 93km/h | 13127m | 5.1m/s | -59.6°C | 15.8% | 174.9hPa | 0V | 00:00:00 | 00:00:00 | 00:00:00 | |
| GYPAP8-17 | 2026-09-05 23:52:21 | 45.96991 | 20.74093 | 126° | 117km/h | 12986m | 3.8m/s | -58.6°C | 15.6% | 178.9hPa | 0V | 00:00:00 | 00:00:00 | 00:00:00 | |
| LZ4TU-5 | 2026-09-05 23:52:14 | 45.97101 | 20.73873 | 128° | 89km/h | 12943m | 11.9m/s | 0°C | 0% | 0hPa | 0V | 00:00:00 | 00:00:00 | 00:00:00 | |
| LZ4TU-5 | 2026-09-05 23:52:10 | 45.97167 | 20.73743 | 128° | 93km/h | 12900m | 7.5m/s | 0°C | 0% | 0hPa | 0V | 00:00:00 | 00:00:00 | 00:00:00 | |
| LZ4TU-5 | 2026-09-05 23:50:23 | 45.99284 | 20.69894 | 122° | 137km/h | 12238m | 5.8m/s | 0°C | 0% | 0hPa | 0V | 00:00:00 | 00:00:00 | 00:00:00 | |
| LZ4TU-5 | 2026-09-05 23:50:19 | 45.99379 | 20.69666 | 121° | 153km/h | 12209m | 5.7m/s | 0°C | 0% | 0hPa | 0V | 00:00:00 | 00:00:00 | 00:00:00 | |
| GYPAP8-17 | 2026-09-05 23:49:26 | 46.00307 | 20.67265 | 117° | 137km/h | 11928m | 6.1m/s | -55.5°C | 0% | 211.3hPa | 0V | 00:00:00 | 00:00:00 | 00:00:00 | |
| LZ4TU-5 | 2026-09-05 23:48:33 | 46.01343 | 20.64831 | 122° | 146km/h | 11617m | 6.7m/s | 0°C | 0% | 0hPa | 0V | 00:00:00 | 00:00:00 | 00:00:00 | |
| LZ4TU-5 | 2026-09-05 23:48:27 | 46.01432 | 20.64607 | 122° | 144km/h | 11584m | 6.4m/s | 0°C | 0% | 0hPa | 0V | 00:00:00 | 00:00:00 | 00:00:00 | |
| GYPAP8-17 | 2026-09-05 23:48:02 | 46.01937 | 20.63457 | 123° | 153km/h | 11443m | 4.9m/s | -52.5°C | 0% | 227.8hPa | 0V | 00:00:00 | 00:00:00 | 00:00:00 | |
| GYPAP8-17 | 2026-09-05 23:47:00 | 46.03152 | 20.60686 | 119° | 135km/h | 11097m | 6.0m/s | 0°C | 0% | 240.3hPa | 0V | 00:00:00 | 00:00:00 | 00:00:00 | |
| LZ4TU-5 | 2026-09-05 23:46:47 | 46.03399 | 20.60097 | 125° | 148km/h | 11030m | 4.1m/s | 0°C | 0% | 0hPa | 0V | 00:00:00 | 00:00:00 | 00:00:00 | |
| LZ4TU-5 | 2026-09-05 23:46:42 | 46.03501 | 20.59877 | 125° | 146km/h | 11004m | 5.9m/s | 0°C | 0% | 0hPa | 0V | 00:00:00 | 00:00:00 | 00:00:00 | |
| GYPAP8-17 | 2026-09-05 23:45:01 | 46.05531 | 20.55670 | 128° | 126km/h | 10388m | 6.8m/s | 0°C | 0% | 267.4hPa | 0V | 00:00:00 | 00:00:00 | 00:00:00 | |
| GYPAP8-17 | 2026-09-05 23:39:30 | 46.12261 | 20.43086 | 134° | 122km/h | 8357m | 10.5m/s | 0°C | 0% | 0hPa | 0V | 00:00:00 | 00:00:00 | 00:00:00 |